createdAt,value
2019-06-20T00:00:24.084Z,18.19
2019-06-20T00:01:23.883Z,18.11
2019-06-20T00:02:23.855Z,18.13
2019-06-20T00:03:24.728Z,18.13
2019-06-20T00:04:23.667Z,18.10
2019-06-20T00:05:23.579Z,18.11
2019-06-20T00:06:23.579Z,18.13
2019-06-20T00:07:23.401Z,18.02
2019-06-20T00:08:23.387Z,18.09
2019-06-20T00:09:23.240Z,18.04
2019-06-20T00:10:23.225Z,17.96
2019-06-20T00:11:23.081Z,17.95
2019-06-20T00:12:23.111Z,17.95
2019-06-20T00:13:22.920Z,17.92
2019-06-20T00:14:22.914Z,17.86
2019-06-20T00:15:22.859Z,17.89
2019-06-20T00:16:22.726Z,17.92
2019-06-20T00:17:22.596Z,17.92
2019-06-20T00:18:22.531Z,17.84
2019-06-20T00:19:22.439Z,17.94
2019-06-20T00:20:23.394Z,17.92
2019-06-20T00:21:22.274Z,17.94
2019-06-20T00:22:23.276Z,17.87
2019-06-20T00:23:22.125Z,17.95
2019-06-20T00:24:22.034Z,17.95
2019-06-20T00:25:22.006Z,17.94
2019-06-20T00:26:21.878Z,17.87
2019-06-20T00:27:21.794Z,17.94
2019-06-20T00:28:21.785Z,17.94
2019-06-20T00:29:21.634Z,17.96
2019-06-20T00:30:21.622Z,17.94
2019-06-20T00:31:21.471Z,17.94
2019-06-20T00:32:21.388Z,17.87
2019-06-20T00:33:21.407Z,17.92
2019-06-20T00:34:21.228Z,17.91
2019-06-20T00:35:21.163Z,17.91
2019-06-20T00:36:21.117Z,17.95
2019-06-20T00:37:20.990Z,17.81
2019-06-20T00:38:20.909Z,17.87
2019-06-20T00:39:21.860Z,17.83
2019-06-20T00:40:20.762Z,17.81
2019-06-20T00:41:20.746Z,17.83
2019-06-20T00:42:20.588Z,17.83
2019-06-20T00:43:20.509Z,17.81
2019-06-20T00:44:27.320Z,17.81
2019-06-20T00:45:20.360Z,17.73
2019-06-20T00:46:20.268Z,17.76
2019-06-20T00:47:20.271Z,17.77
2019-06-20T00:48:20.112Z,17.77
2019-06-20T00:49:20.030Z,17.76
2019-06-20T00:50:22.076Z,17.71
2019-06-20T00:51:19.865Z,17.81
2019-06-20T00:52:19.789Z,17.73
2019-06-20T00:53:19.708Z,17.74
2019-06-20T00:54:19.720Z,17.74
2019-06-20T00:55:19.557Z,17.79
2019-06-20T00:56:19.464Z,17.70
2019-06-20T00:57:19.432Z,17.74
2019-06-20T00:58:19.300Z,17.70
2019-06-20T00:59:19.224Z,17.70
2019-06-20T01:00:19.173Z,17.73
2019-06-20T01:01:19.058Z,17.73
2019-06-20T01:02:18.980Z,17.83
2019-06-20T01:03:25.817Z,17.80
2019-06-20T01:04:18.819Z,17.80
2019-06-20T01:05:18.801Z,17.83
2019-06-20T01:06:18.659Z,17.95
2019-06-20T01:07:18.683Z,17.94
2019-06-20T01:08:18.529Z,17.94
2019-06-20T01:09:20.430Z,17.86
2019-06-20T01:10:18.391Z,17.92
2019-06-20T01:11:18.303Z,17.95
2019-06-20T01:12:18.182Z,17.94
2019-06-20T01:13:32.489Z,18.04
2019-06-20T01:14:18.018Z,18.02
2019-06-20T01:15:21.328Z,18.01
2019-06-20T01:16:17.854Z,18.09
2019-06-20T01:17:17.826Z,18.05
2019-06-20T01:18:17.705Z,18.05
2019-06-20T01:19:17.616Z,18.02
2019-06-20T01:20:17.779Z,18.02
2019-06-20T01:21:17.452Z,18.02
2019-06-20T01:22:17.377Z,18.11
2019-06-20T01:23:17.353Z,18.11
2019-06-20T01:24:17.228Z,18.11
2019-06-20T01:25:17.133Z,18.13
2019-06-20T01:26:17.099Z,18.11
2019-06-20T01:27:16.975Z,18.09
2019-06-20T01:28:16.895Z,18.13
2019-06-20T01:29:16.884Z,18.17
2019-06-20T01:30:16.736Z,18.20
2019-06-20T01:31:16.723Z,18.23
2019-06-20T01:32:16.578Z,18.19
2019-06-20T01:33:16.600Z,18.21
2019-06-20T01:34:16.407Z,18.21
2019-06-20T01:35:16.336Z,18.16
2019-06-20T01:36:16.351Z,18.10
2019-06-20T01:37:16.172Z,18.16
2019-06-20T01:38:16.093Z,18.10
2019-06-20T01:39:16.026Z,18.14
2019-06-20T01:40:15.924Z,18.09
2019-06-20T01:41:15.877Z,18.14
2019-06-20T01:42:15.765Z,18.05
2019-06-20T01:43:15.752Z,18.04
2019-06-20T01:44:15.605Z,18.07
2019-06-20T01:45:15.528Z,18.02
2019-06-20T01:46:15.500Z,18.02
2019-06-20T01:47:15.365Z,18.04
2019-06-20T01:48:15.286Z,18.02
2019-06-20T01:49:15.283Z,18.05
2019-06-20T01:50:15.134Z,18.07
2019-06-20T01:51:15.127Z,18.10
2019-06-20T01:52:14.965Z,18.13
2019-06-20T01:53:15.925Z,18.04
2019-06-20T01:54:14.799Z,17.99
2019-06-20T01:55:14.720Z,18.01
2019-06-20T01:56:14.749Z,18.05
2019-06-20T01:57:14.560Z,18.05
2019-06-20T01:58:14.480Z,18.09
2019-06-20T01:59:14.443Z,18.11
2019-06-20T02:00:14.325Z,18.09
2019-06-20T02:01:15.294Z,18.11
2019-06-20T02:02:14.161Z,18.17
2019-06-20T02:03:14.434Z,18.09
2019-06-20T02:04:13.996Z,18.09
2019-06-20T02:05:20.827Z,18.19
2019-06-20T02:06:13.854Z,18.26
2019-06-20T02:07:13.874Z,18.29
2019-06-20T02:08:13.681Z,18.26
2019-06-20T02:09:13.690Z,18.26
2019-06-20T02:10:13.519Z,18.32
2019-06-20T02:11:13.523Z,18.26
2019-06-20T02:12:13.363Z,18.31
2019-06-20T02:13:14.337Z,18.31
2019-06-20T02:14:13.195Z,18.31
2019-06-20T02:15:13.113Z,18.28
2019-06-20T02:16:13.152Z,18.29
2019-06-20T02:17:12.953Z,18.32
2019-06-20T02:18:12.874Z,18.28
2019-06-20T02:19:12.831Z,18.35
2019-06-20T02:20:12.727Z,18.26
2019-06-20T02:21:12.642Z,18.31
2019-06-20T02:22:12.562Z,18.34
2019-06-20T02:23:12.472Z,18.32
2019-06-20T02:24:12.434Z,18.41
2019-06-20T02:25:12.363Z,18.41
2019-06-20T02:26:12.400Z,18.41
2019-06-20T02:27:12.170Z,18.34
2019-06-20T02:28:12.070Z,18.32
2019-06-20T02:29:11.988Z,18.38
2019-06-20T02:30:11.915Z,18.44
2019-06-20T02:31:11.921Z,18.36
2019-06-20T02:32:11.750Z,18.38
2019-06-20T02:33:11.677Z,18.41
2019-06-20T02:34:11.585Z,18.31
2019-06-20T02:35:11.606Z,18.38
2019-06-20T02:36:11.436Z,18.31
2019-06-20T02:37:11.346Z,18.35
2019-06-20T02:38:11.265Z,18.32
2019-06-20T02:39:11.229Z,18.34
2019-06-20T02:40:11.113Z,18.41
2019-06-20T02:41:11.070Z,18.35
2019-06-20T02:42:10.948Z,18.38
2019-06-20T02:43:10.947Z,18.41
2019-06-20T02:44:28.433Z,18.44
2019-06-20T02:45:10.754Z,18.34
2019-06-20T02:46:10.635Z,18.35
2019-06-20T02:47:10.566Z,18.36
2019-06-20T02:48:10.470Z,18.36
2019-06-20T02:49:11.398Z,18.41
2019-06-20T02:50:10.305Z,18.44
2019-06-20T02:51:10.322Z,18.34
2019-06-20T02:52:10.142Z,18.46
2019-06-20T02:53:10.097Z,18.38
2019-06-20T02:54:09.992Z,18.35
2019-06-20T02:55:09.906Z,18.35
2019-06-20T02:56:09.972Z,18.31
2019-06-20T02:57:09.740Z,18.44
2019-06-20T02:58:09.673Z,18.36
2019-06-20T02:59:09.625Z,18.41
2019-06-20T03:00:09.503Z,18.42
2019-06-20T03:01:09.436Z,18.39
2019-06-20T03:02:09.448Z,18.39
2019-06-20T03:03:09.266Z,18.44
2019-06-20T03:04:09.186Z,18.49
2019-06-20T03:05:09.153Z,18.46
2019-06-20T03:06:09.037Z,18.32
2019-06-20T03:07:09.000Z,18.35
2019-06-20T03:08:08.858Z,18.42
2019-06-20T03:09:08.874Z,18.31
2019-06-20T03:10:08.699Z,18.31
2019-06-20T03:11:08.616Z,18.41
2019-06-20T03:12:08.619Z,18.42
2019-06-20T03:13:09.501Z,18.44
2019-06-20T03:14:08.382Z,18.38
2019-06-20T03:15:08.405Z,18.44
2019-06-20T03:16:08.221Z,18.41
2019-06-20T03:17:08.158Z,18.41
2019-06-20T03:18:08.064Z,18.41
2019-06-20T03:19:07.978Z,18.41
2019-06-20T03:20:07.891Z,18.41
2019-06-20T03:21:07.834Z,18.41
2019-06-20T03:22:07.748Z,18.41
2019-06-20T03:23:07.663Z,18.44
2019-06-20T03:24:07.752Z,18.38
2019-06-20T03:25:07.493Z,18.42
2019-06-20T03:26:07.415Z,18.28
2019-06-20T03:27:07.390Z,18.39
2019-06-20T03:28:07.258Z,18.32
2019-06-20T03:29:07.173Z,18.47
2019-06-20T03:30:07.180Z,18.39
2019-06-20T03:31:07.033Z,18.41
2019-06-20T03:32:06.960Z,18.42
2019-06-20T03:33:06.890Z,18.41
2019-06-20T03:34:06.778Z,18.42
2019-06-20T03:35:06.812Z,18.35
2019-06-20T03:36:06.733Z,18.41
2019-06-20T03:37:06.552Z,18.26
2019-06-20T03:38:06.514Z,18.35
2019-06-20T03:39:06.387Z,18.26
2019-06-20T03:40:06.323Z,18.28
2019-06-20T03:41:06.211Z,18.29
2019-06-20T03:42:06.178Z,18.23
2019-06-20T03:43:06.049Z,18.25
2019-06-20T03:44:07.070Z,18.21
2019-06-20T03:45:05.887Z,18.26
2019-06-20T03:46:05.821Z,18.16
2019-06-20T03:47:05.809Z,18.17
2019-06-20T03:48:05.653Z,18.16
2019-06-20T03:49:05.579Z,18.14
2019-06-20T03:50:06.598Z,18.16
2019-06-20T03:51:05.417Z,18.20
2019-06-20T03:52:05.342Z,18.17
2019-06-20T03:53:05.285Z,18.17
2019-06-20T03:54:05.168Z,18.21
2019-06-20T03:55:05.087Z,18.11
2019-06-20T03:56:05.103Z,18.10
2019-06-20T03:57:04.941Z,18.13
2019-06-20T03:58:04.913Z,18.19
2019-06-20T03:59:04.766Z,18.10
2019-06-20T04:00:04.720Z,18.16
2019-06-20T04:01:04.611Z,18.17
2019-06-20T04:02:04.560Z,18.17
2019-06-20T04:03:04.446Z,18.21
2019-06-20T04:04:04.439Z,18.16
2019-06-20T04:05:04.279Z,18.28
2019-06-20T04:06:04.264Z,18.21
2019-06-20T04:07:04.190Z,18.21
2019-06-20T04:08:04.101Z,18.31
2019-06-20T04:09:03.966Z,18.31
2019-06-20T04:10:03.970Z,18.31
2019-06-20T04:11:03.808Z,18.29
2019-06-20T04:12:03.812Z,18.28
2019-06-20T04:13:03.636Z,18.41
2019-06-20T04:14:03.593Z,18.44
2019-06-20T04:15:17.904Z,18.39
2019-06-20T04:16:03.439Z,18.46
2019-06-20T04:17:03.439Z,18.44
2019-06-20T04:18:03.256Z,18.44
2019-06-20T04:19:03.158Z,18.49
2019-06-20T04:20:03.121Z,18.56
2019-06-20T04:21:03.005Z,18.44
2019-06-20T04:22:03.023Z,18.51
2019-06-20T04:23:02.858Z,18.50
2019-06-20T04:24:02.772Z,18.50
2019-06-20T04:25:02.681Z,18.50
2019-06-20T04:26:02.597Z,18.54
2019-06-20T04:27:02.592Z,18.50
2019-06-20T04:28:02.590Z,18.56
2019-06-20T04:29:02.360Z,18.51
2019-06-20T04:30:02.368Z,18.56
2019-06-20T04:31:02.198Z,18.56
2019-06-20T04:32:02.138Z,18.47
2019-06-20T04:33:02.050Z,18.56
2019-06-20T04:34:01.960Z,18.66
2019-06-20T04:35:01.897Z,18.50
2019-06-20T04:36:01.795Z,18.49
2019-06-20T04:37:01.835Z,18.53
2019-06-20T04:38:01.638Z,18.56
2019-06-20T04:39:01.718Z,18.53
2019-06-20T04:40:01.479Z,18.49
2019-06-20T04:41:01.421Z,18.53
2019-06-20T04:42:01.329Z,18.53
2019-06-20T04:43:01.342Z,18.53
2019-06-20T04:44:01.176Z,18.60
2019-06-20T04:45:01.184Z,18.53
2019-06-20T04:46:00.993Z,18.59
2019-06-20T04:47:00.928Z,18.59
2019-06-20T04:48:00.836Z,18.56
2019-06-20T04:49:00.753Z,18.74
2019-06-20T04:50:00.694Z,18.71
2019-06-20T04:51:00.670Z,18.65
2019-06-20T04:52:00.537Z,18.65
2019-06-20T04:53:00.445Z,18.75
2019-06-20T04:54:00.389Z,18.72
2019-06-20T04:55:00.309Z,18.79
2019-06-20T04:56:00.190Z,18.91
2019-06-20T04:57:00.231Z,18.86
2019-06-20T04:58:00.037Z,18.84
2019-06-20T04:58:59.952Z,18.82
2019-06-20T04:59:59.915Z,18.87
2019-06-20T05:00:59.792Z,18.91
2019-06-20T05:01:59.730Z,18.99
2019-06-20T05:02:59.730Z,18.97
2019-06-20T05:03:59.553Z,19.06
2019-06-20T05:05:01.487Z,19.05
2019-06-20T05:05:59.398Z,19.09
2019-06-20T05:06:59.330Z,19.12
2019-06-20T05:07:59.257Z,19.16
2019-06-20T05:08:59.155Z,19.17
2019-06-20T05:09:59.084Z,19.15
2019-06-20T05:11:05.929Z,19.10
2019-06-20T05:11:58.936Z,19.07
2019-06-20T05:12:58.878Z,19.06
2019-06-20T05:13:58.760Z,19.05
2019-06-20T05:14:58.690Z,19.13
2019-06-20T05:15:58.600Z,19.24
2019-06-20T05:17:07.270Z,19.24
2019-06-20T05:17:58.571Z,19.13
2019-06-20T05:18:58.362Z,19.15
2019-06-20T05:19:58.420Z,19.24
2019-06-20T05:20:58.200Z,19.25
2019-06-20T05:21:58.190Z,19.38
2019-06-20T05:22:58.052Z,19.25
2019-06-20T05:23:57.998Z,19.47
2019-06-20T05:24:57.874Z,19.42
2019-06-20T05:25:58.009Z,19.52
2019-06-20T05:26:57.714Z,19.52
2019-06-20T05:27:58.055Z,19.60
2019-06-20T05:28:57.552Z,19.65
2019-06-20T05:29:57.642Z,19.62
2019-06-20T05:30:57.392Z,19.57
2019-06-20T05:31:57.327Z,19.58
2019-06-20T05:32:57.266Z,19.55
2019-06-20T05:33:57.158Z,19.53
2019-06-20T05:34:57.076Z,19.53
2019-06-20T05:35:57.054Z,19.52
2019-06-20T05:36:56.933Z,19.55
2019-06-20T05:37:56.867Z,19.49
2019-06-20T05:38:56.868Z,19.43
2019-06-20T05:39:56.756Z,19.50
2019-06-20T05:40:56.605Z,19.50
2019-06-20T05:41:56.683Z,19.52
2019-06-20T05:42:56.521Z,19.61
2019-06-20T05:43:56.357Z,19.53
2019-06-20T05:44:56.280Z,19.43
2019-06-20T05:46:09.001Z,19.45
2019-06-20T05:47:11.445Z,19.53
2019-06-20T05:47:56.038Z,19.45
2019-06-20T05:48:55.977Z,19.43
2019-06-20T05:49:55.924Z,19.45
2019-06-20T05:50:55.803Z,19.53
2019-06-20T05:51:55.930Z,19.53
2019-06-20T05:52:55.646Z,19.53
2019-06-20T05:53:55.767Z,19.58
2019-06-20T05:54:55.483Z,19.62
2019-06-20T05:55:55.564Z,19.75
2019-06-20T05:56:55.337Z,19.75
2019-06-20T05:57:55.248Z,19.70
2019-06-20T05:58:55.396Z,19.83
2019-06-20T05:59:55.081Z,19.83
2019-06-20T06:00:55.007Z,19.76
2019-06-20T06:01:56.408Z,19.75
2019-06-20T06:02:54.854Z,19.83
2019-06-20T06:03:54.811Z,19.80
2019-06-20T06:04:54.685Z,19.71
2019-06-20T06:05:54.794Z,19.80
2019-06-20T06:06:54.529Z,19.79
2019-06-20T06:07:54.452Z,19.72
2019-06-20T06:08:54.436Z,19.72
2019-06-20T06:09:54.294Z,19.72
2019-06-20T06:10:54.219Z,19.71
2019-06-20T06:11:54.226Z,19.72
2019-06-20T06:12:54.053Z,19.79
2019-06-20T06:14:01.144Z,19.75
2019-06-20T06:14:54.037Z,19.60
2019-06-20T06:15:53.810Z,19.57
2019-06-20T06:16:53.847Z,19.61
2019-06-20T06:17:53.651Z,19.76
2019-06-20T06:18:53.651Z,19.71
2019-06-20T06:19:53.506Z,19.67
2019-06-20T06:20:53.465Z,19.67
2019-06-20T06:21:53.338Z,19.72
2019-06-20T06:22:53.580Z,19.65
2019-06-20T06:23:53.276Z,19.68
2019-06-20T06:24:53.123Z,19.65
2019-06-20T06:25:53.015Z,19.67
2019-06-20T06:26:53.091Z,19.71
2019-06-20T06:28:00.954Z,19.86
2019-06-20T06:28:52.900Z,19.78
2019-06-20T06:29:52.725Z,19.98
2019-06-20T06:30:52.705Z,19.89
2019-06-20T06:31:52.557Z,20.04
2019-06-20T06:32:52.518Z,19.98
2019-06-20T06:33:52.382Z,20.00
2019-06-20T06:34:52.362Z,19.94
2019-06-20T06:35:52.223Z,19.78
2019-06-20T06:36:52.373Z,19.92
2019-06-20T06:37:52.065Z,19.83
2019-06-20T06:38:52.061Z,19.90
2019-06-20T06:39:51.980Z,19.83
2019-06-20T06:40:51.831Z,19.82
2019-06-20T06:41:51.751Z,20.07
2019-06-20T06:42:51.761Z,19.97
2019-06-20T06:43:51.585Z,19.97
2019-06-20T06:44:51.529Z,19.95
2019-06-20T06:45:51.580Z,20.02
2019-06-20T06:46:54.372Z,20.08
2019-06-20T06:47:51.270Z,20.10
2019-06-20T06:48:51.392Z,20.13
2019-06-20T06:49:51.141Z,20.13
2019-06-20T06:50:51.037Z,20.10
2019-06-20T06:51:51.000Z,20.19
2019-06-20T06:52:50.887Z,20.23
2019-06-20T06:53:50.807Z,20.35
2019-06-20T06:54:50.819Z,20.41
2019-06-20T06:55:50.658Z,20.48
2019-06-20T06:56:50.625Z,20.46
2019-06-20T06:57:50.478Z,20.48
2019-06-20T06:58:50.402Z,20.56
2019-06-20T06:59:50.319Z,20.60
2019-06-20T07:00:50.363Z,20.73
2019-06-20T07:01:50.162Z,20.68
2019-06-20T07:02:50.086Z,20.66
2019-06-20T07:03:50.021Z,20.60
2019-06-20T07:04:50.974Z,20.63
2019-06-20T07:05:49.871Z,20.61
2019-06-20T07:06:49.891Z,20.78
2019-06-20T07:07:49.693Z,20.82
2019-06-20T07:08:49.617Z,21.01
2019-06-20T07:09:49.582Z,21.03
2019-06-20T07:10:49.463Z,21.06
2019-06-20T07:11:49.382Z,21.19
2019-06-20T07:12:49.404Z,21.34
2019-06-20T07:13:49.222Z,21.48
2019-06-20T07:14:49.138Z,21.67
2019-06-20T07:15:49.145Z,21.61
2019-06-20T07:16:59.679Z,21.67
2019-06-20T07:17:48.909Z,21.82
2019-06-20T07:18:48.833Z,21.91
2019-06-20T07:19:48.779Z,22.04
2019-06-20T07:20:48.685Z,22.08
2019-06-20T07:21:48.956Z,22.06
2019-06-20T07:22:48.522Z,22.14
2019-06-20T07:23:48.440Z,22.31
2019-06-20T07:24:48.365Z,22.19
2019-06-20T07:25:48.293Z,22.33
2019-06-20T07:26:48.208Z,22.14
2019-06-20T07:27:48.134Z,22.19
2019-06-20T07:28:51.415Z,22.12
2019-06-20T07:29:47.980Z,22.15
2019-06-20T07:30:48.024Z,22.20
2019-06-20T07:31:47.855Z,22.19
2019-06-20T07:32:47.751Z,22.12
2019-06-20T07:33:47.697Z,22.29
2019-06-20T07:34:47.601Z,22.35
2019-06-20T07:35:47.641Z,22.52
2019-06-20T07:36:47.463Z,22.81
2019-06-20T07:37:53.977Z,23.07
2019-06-20T07:38:47.289Z,23.25
2019-06-20T07:39:47.265Z,23.31
2019-06-20T07:40:47.149Z,23.14
2019-06-20T07:41:47.069Z,22.94
2019-06-20T07:42:46.986Z,22.97
2019-06-20T07:43:46.918Z,23.01
2019-06-20T07:44:46.841Z,23.07
2019-06-20T07:46:01.503Z,23.21
2019-06-20T07:46:46.689Z,23.38
2019-06-20T07:47:46.618Z,23.49
2019-06-20T07:48:46.537Z,23.41
2019-06-20T07:49:46.479Z,23.09
2019-06-20T07:50:46.406Z,23.00
2019-06-20T07:51:46.329Z,22.93
2019-06-20T07:53:00.810Z,23.03
2019-06-20T07:53:46.176Z,23.18
2019-06-20T07:54:46.093Z,23.29
2019-06-20T07:55:46.045Z,23.26
2019-06-20T07:56:45.950Z,23.39
2019-06-20T07:57:45.875Z,23.52
2019-06-20T07:58:45.800Z,23.59
2019-06-20T07:59:45.728Z,23.72
2019-06-20T08:00:45.667Z,23.62
2019-06-20T08:01:45.582Z,23.29
2019-06-20T08:02:45.499Z,23.07
2019-06-20T08:03:45.438Z,23.07
2019-06-20T08:04:45.361Z,23.29
2019-06-20T08:05:45.301Z,23.25
2019-06-20T08:06:45.303Z,23.12
2019-06-20T08:07:45.146Z,23.35
2019-06-20T08:08:45.061Z,23.47
2019-06-20T08:09:45.588Z,23.75
2019-06-20T08:10:44.992Z,23.93
2019-06-20T08:11:44.837Z,24.08
2019-06-20T08:12:44.775Z,24.39
2019-06-20T08:13:44.695Z,24.53
2019-06-20T08:14:44.701Z,24.61
2019-06-20T08:15:44.561Z,24.44
2019-06-20T08:16:44.603Z,24.23
2019-06-20T08:17:44.528Z,23.92
2019-06-20T08:18:44.335Z,23.75
2019-06-20T08:19:44.425Z,23.49
2019-06-20T08:20:44.219Z,23.14
2019-06-20T08:21:44.289Z,22.79
2019-06-20T08:22:44.237Z,22.46
2019-06-20T08:23:43.963Z,22.33
2019-06-20T08:24:43.898Z,22.31
2019-06-20T08:25:43.851Z,22.76
2019-06-20T08:26:43.765Z,23.11
2019-06-20T08:27:43.667Z,23.49
2019-06-20T08:28:43.664Z,23.69
2019-06-20T08:29:43.522Z,23.92
2019-06-20T08:30:43.455Z,24.15
2019-06-20T08:31:43.540Z,24.31
2019-06-20T08:32:43.307Z,24.51
2019-06-20T08:33:43.228Z,24.64
2019-06-20T08:34:43.294Z,24.80
2019-06-20T08:35:43.108Z,24.80
2019-06-20T08:36:43.134Z,24.60
2019-06-20T08:37:42.945Z,24.56
2019-06-20T08:38:42.884Z,24.04
2019-06-20T08:39:42.812Z,23.81
2019-06-20T08:40:42.736Z,23.56
2019-06-20T08:41:42.671Z,23.06
2019-06-20T08:42:42.591Z,22.76
2019-06-20T08:43:42.518Z,22.64
2019-06-20T08:44:42.438Z,22.79
2019-06-20T08:45:42.372Z,23.03
2019-06-20T08:46:42.306Z,22.96
2019-06-20T08:47:42.295Z,23.07
2019-06-20T08:48:42.152Z,23.34
2019-06-20T08:49:42.073Z,23.57
2019-06-20T08:50:42.006Z,23.56
2019-06-20T08:51:41.959Z,23.59
2019-06-20T08:52:41.851Z,23.78
2019-06-20T08:53:41.788Z,23.96
2019-06-20T08:54:41.711Z,24.39
2019-06-20T08:55:41.630Z,24.68
2019-06-20T08:56:41.575Z,24.60
2019-06-20T08:57:41.499Z,24.42
2019-06-20T08:58:41.414Z,24.08
2019-06-20T08:59:41.351Z,23.63
2019-06-20T09:00:41.279Z,23.53
2019-06-20T09:01:41.212Z,23.22
2019-06-20T09:02:41.145Z,23.34
2019-06-20T09:03:41.152Z,23.25
2019-06-20T09:04:40.978Z,23.16
2019-06-20T09:05:40.920Z,23.41
2019-06-20T09:06:40.851Z,23.59
2019-06-20T09:07:41.801Z,23.67
2019-06-20T09:08:40.693Z,23.60
2019-06-20T09:09:40.634Z,23.72
2019-06-20T09:10:40.558Z,24.14
2019-06-20T09:11:40.496Z,24.61
2019-06-20T09:12:40.419Z,24.97
2019-06-20T09:13:40.720Z,25.31
2019-06-20T09:14:41.265Z,25.69
2019-06-20T09:15:40.194Z,25.91
2019-06-20T09:16:40.192Z,26.19
2019-06-20T09:17:40.043Z,26.35
2019-06-20T09:18:39.983Z,26.51
2019-06-20T09:19:39.906Z,26.69
2019-06-20T09:20:39.848Z,26.94
2019-06-20T09:21:39.800Z,26.97
2019-06-20T09:22:39.701Z,26.84
2019-06-20T09:23:39.637Z,26.90
2019-06-20T09:24:39.567Z,26.88
2019-06-20T09:25:39.498Z,26.69
2019-06-20T09:26:39.439Z,26.57
2019-06-20T09:27:39.545Z,26.03
2019-06-20T09:28:39.287Z,25.63
2019-06-20T09:29:42.025Z,25.41
2019-06-20T09:30:39.362Z,25.05
2019-06-20T09:31:39.095Z,24.74
2019-06-20T09:32:39.170Z,24.26
2019-06-20T09:33:38.953Z,23.94
2019-06-20T09:34:38.877Z,23.84
2019-06-20T09:35:38.983Z,23.89
2019-06-20T09:36:38.748Z,23.74
2019-06-20T09:37:38.670Z,23.54
2019-06-20T09:38:38.807Z,23.53
2019-06-20T09:39:38.519Z,23.31
2019-06-20T09:40:38.455Z,23.16
2019-06-20T09:41:38.450Z,22.93
2019-06-20T09:42:38.308Z,23.06
2019-06-20T09:43:38.424Z,23.06
2019-06-20T09:44:38.166Z,23.19
2019-06-20T09:45:38.100Z,23.63
2019-06-20T09:46:38.037Z,23.93
2019-06-20T09:47:38.040Z,24.55
2019-06-20T09:48:37.882Z,24.98
2019-06-20T09:49:37.849Z,25.29
2019-06-20T09:50:37.715Z,25.26
2019-06-20T09:51:37.729Z,25.17
2019-06-20T09:52:37.575Z,24.82
2019-06-20T09:53:37.616Z,24.42
2019-06-20T09:54:37.433Z,24.27
2019-06-20T09:55:37.477Z,24.00
2019-06-20T09:56:37.309Z,23.90
2019-06-20T09:57:37.284Z,23.79
2019-06-20T09:58:37.157Z,24.16
2019-06-20T09:59:37.299Z,24.46
2019-06-20T10:00:37.010Z,24.86
2019-06-20T10:01:37.138Z,25.30
2019-06-20T10:02:36.885Z,25.63
2019-06-20T10:03:36.921Z,25.63
2019-06-20T10:04:36.850Z,25.79
2019-06-20T10:05:36.724Z,25.97
2019-06-20T10:06:36.586Z,25.78
2019-06-20T10:07:36.536Z,25.44
2019-06-20T10:08:36.432Z,25.51
2019-06-20T10:09:36.553Z,25.57
2019-06-20T10:10:36.295Z,25.61
2019-06-20T10:11:36.389Z,25.54
2019-06-20T10:12:36.158Z,25.57
2019-06-20T10:13:36.161Z,25.45
2019-06-20T10:14:36.019Z,25.34
2019-06-20T10:15:35.958Z,25.45
2019-06-20T10:16:45.264Z,25.59
2019-06-20T10:17:35.810Z,26.01
2019-06-20T10:18:35.747Z,26.16
2019-06-20T10:19:35.794Z,26.24
2019-06-20T10:20:38.668Z,26.42
2019-06-20T10:21:35.634Z,26.66
2019-06-20T10:22:35.476Z,26.78
2019-06-20T10:23:35.613Z,26.65
2019-06-20T10:24:35.351Z,26.64
2019-06-20T10:25:35.290Z,26.75
2019-06-20T10:26:37.757Z,26.96
2019-06-20T10:27:35.151Z,27.20
2019-06-20T10:28:35.066Z,27.45
2019-06-20T10:29:35.045Z,27.65
2019-06-20T10:30:34.939Z,27.66
2019-06-20T10:31:34.871Z,27.71
2019-06-20T10:32:34.889Z,27.52
2019-06-20T10:33:34.741Z,27.43
2019-06-20T10:34:34.868Z,27.31
2019-06-20T10:35:34.611Z,27.53
2019-06-20T10:36:34.539Z,27.74
2019-06-20T10:37:34.510Z,27.66
2019-06-20T10:38:34.416Z,27.63
2019-06-20T10:39:34.422Z,27.71
2019-06-20T10:40:34.501Z,27.90
2019-06-20T10:41:34.218Z,27.83
2019-06-20T10:42:34.340Z,27.93
2019-06-20T10:43:34.102Z,27.76
2019-06-20T10:44:34.117Z,27.65
2019-06-20T10:45:33.965Z,27.72
2019-06-20T10:46:33.909Z,27.88
2019-06-20T10:47:36.193Z,28.17
2019-06-20T10:48:33.827Z,28.03
2019-06-20T10:49:33.713Z,28.25
2019-06-20T10:50:33.703Z,28.20
2019-06-20T10:51:33.590Z,27.88
2019-06-20T10:52:33.536Z,27.59
2019-06-20T10:53:40.074Z,27.12
2019-06-20T10:54:33.395Z,27.11
2019-06-20T10:55:33.328Z,27.58
2019-06-20T10:56:33.335Z,27.69
2019-06-20T10:57:33.235Z,27.49
2019-06-20T10:58:33.141Z,27.30
2019-06-20T10:59:33.163Z,27.63
2019-06-20T11:00:33.011Z,27.46
2019-06-20T11:01:32.946Z,27.13
2019-06-20T11:02:33.005Z,26.94
2019-06-20T11:03:32.817Z,26.61
2019-06-20T11:04:32.760Z,26.11
2019-06-20T11:05:32.790Z,26.16
2019-06-20T11:06:32.617Z,26.13
2019-06-20T11:07:32.625Z,26.27
2019-06-20T11:08:32.484Z,26.35
2019-06-20T11:09:34.450Z,26.41
2019-06-20T11:10:32.354Z,26.32
2019-06-20T11:11:32.282Z,26.19
2019-06-20T11:12:42.798Z,26.24
2019-06-20T11:13:32.146Z,26.20
2019-06-20T11:14:32.082Z,26.21
2019-06-20T11:15:34.122Z,25.97
2019-06-20T11:16:31.960Z,25.90
2019-06-20T11:17:31.880Z,25.69
2019-06-20T11:18:31.848Z,25.53
2019-06-20T11:19:31.731Z,25.16
2019-06-20T11:20:31.661Z,25.23
2019-06-20T11:21:31.664Z,24.97
2019-06-20T11:22:31.538Z,24.82
2019-06-20T11:23:31.450Z,24.84
2019-06-20T11:24:31.477Z,24.71
2019-06-20T11:25:31.312Z,24.77
2019-06-20T11:26:31.241Z,24.97
2019-06-20T11:27:31.251Z,24.93
2019-06-20T11:28:31.092Z,24.99
2019-06-20T11:29:31.020Z,24.94
2019-06-20T11:30:47.564Z,24.94
2019-06-20T11:31:30.870Z,24.94
2019-06-20T11:32:30.810Z,24.82
2019-06-20T11:33:30.824Z,24.83
2019-06-20T11:34:30.658Z,24.79
2019-06-20T11:35:30.580Z,24.84
2019-06-20T11:36:30.552Z,24.80
2019-06-20T11:37:30.446Z,24.61
2019-06-20T11:38:30.363Z,24.53
2019-06-20T11:39:30.355Z,24.45
2019-06-20T11:40:30.214Z,24.55
2019-06-20T11:41:31.469Z,24.61
2019-06-20T11:42:30.104Z,24.60
2019-06-20T11:43:30.036Z,24.74
2019-06-20T11:44:38.838Z,24.84
2019-06-20T11:45:29.873Z,25.07
2019-06-20T11:46:29.770Z,25.30
2019-06-20T11:47:29.719Z,25.51
2019-06-20T11:48:29.692Z,25.60
2019-06-20T11:49:29.544Z,26.04
2019-06-20T11:50:29.468Z,26.54
2019-06-20T11:51:29.440Z,26.57
2019-06-20T11:52:29.347Z,26.64
2019-06-20T11:53:29.255Z,26.66
2019-06-20T11:54:29.219Z,26.60
2019-06-20T11:55:29.108Z,26.39
2019-06-20T11:56:29.033Z,26.27
2019-06-20T11:57:28.983Z,26.23
2019-06-20T11:58:28.890Z,26.00
2019-06-20T11:59:28.825Z,25.96
2019-06-20T12:00:28.849Z,25.74
2019-06-20T12:01:32.983Z,25.82
2019-06-20T12:02:28.617Z,25.60
2019-06-20T12:03:28.561Z,25.45
2019-06-20T12:04:28.458Z,25.31
2019-06-20T12:05:30.423Z,25.31
2019-06-20T12:06:28.321Z,25.11
2019-06-20T12:07:28.314Z,24.90
2019-06-20T12:08:28.173Z,24.93
2019-06-20T12:09:28.191Z,24.82
2019-06-20T12:10:28.026Z,24.83
2019-06-20T12:11:30.053Z,24.90
2019-06-20T12:12:27.893Z,25.05
2019-06-20T12:13:27.811Z,25.23
2019-06-20T12:14:27.821Z,25.29
2019-06-20T12:15:27.663Z,25.38
2019-06-20T12:16:27.590Z,25.60
2019-06-20T12:17:27.537Z,25.78
2019-06-20T12:18:27.465Z,26.27
2019-06-20T12:19:27.415Z,26.78
2019-06-20T12:20:27.347Z,27.12
2019-06-20T12:21:27.234Z,27.61
2019-06-20T12:22:27.164Z,27.80
2019-06-20T12:23:27.197Z,27.59
2019-06-20T12:24:27.029Z,27.30
2019-06-20T12:25:33.631Z,27.12
2019-06-20T12:26:26.887Z,26.87
2019-06-20T12:27:26.845Z,26.84
2019-06-20T12:28:26.767Z,26.87
2019-06-20T12:29:26.803Z,26.81
2019-06-20T12:30:26.615Z,26.83
2019-06-20T12:37:42.748Z,25.60
2019-06-20T12:38:48.350Z,25.61
2019-06-20T12:39:40.385Z,25.57
2019-06-20T12:40:41.233Z,25.34
2019-06-20T12:41:47.690Z,25.16
2019-06-20T12:42:41.834Z,25.12
2019-06-20T12:43:40.344Z,25.11
2019-06-20T12:44:40.085Z,25.05
2019-06-20T12:45:40.039Z,25.23
2019-06-20T12:46:40.933Z,25.56
2019-06-20T12:47:40.226Z,26.23
2019-06-20T12:48:39.906Z,26.68
2019-06-20T12:49:40.205Z,27.02
2019-06-20T12:50:40.256Z,27.25
2019-06-20T12:51:40.426Z,27.43
2019-06-20T12:52:40.726Z,27.13
2019-06-20T12:53:40.376Z,26.94
2019-06-20T12:54:40.976Z,26.79
2019-06-20T12:55:40.257Z,26.73
2019-06-20T12:56:40.217Z,26.57
2019-06-20T12:57:40.254Z,26.36